Pagrindinis puslapis
METAR-TAF:

METAR-TAF

Oro uostai :

Gran Kanarija, Ispanija

platuma: 27-56N, ilguma: 015-23W, Aukštis: 23 m

Dabartinis oras

Ataskaita buvo paskelbta 20 minutes, ne 05:00 UTC
Vėjas 11 kt iš Šiaurės
Temperatūra 19°C
Drėgmė 78%
Slėgis 1016 hPa
Matomumas 10 km arba daugiau
Mažai debesys ne aukštis 2000 ft

METAR: GCLP 290500Z 36011KT 9999 FEW020 19/15 Q1016 NOSIG

Laikas: 06:20 (05:20 UTC)

Prognozė

Ataskaita buvo paskelbta 3 valandos ir 20 minutes, ne 02:00 UTC
Prognozė galioja nuo 29 metu 03 UTC su 30 metu 03 UTC
Vėjas 16 kt iš Šiaurės
Matomumas 10 km arba daugiau
Išsisklaidę debesys ne aukštis 2000 ft

TAF: GCLP 290200Z 2903/3003 01016KT 9999 SCT020 TX24/2914Z TN18/2906Z

Orai ataskaitas ir orų prognozės (METAR, TAF).

turimą stotys yra geltonos ir raudonos taškus žemėlapyje.

Perkelti pele per norėdami pamatyti stoties vardą.

Tada spustelėkite, norėdami matyti oro stebėjimo ir prognozės.

Norėdami pakeisti žemėlapį: spustelėkite ant žalios mygtukų su juodo kryžiaus žemyn,; žalią mygtuką su brūkšneliu, jei norite nutolinti; arba žalių rodyklių gretimoms žemėlapius.


METAR-TAF: